Time,TemperatureF,DewpointF,PressureIn,WindDirection,WindDirectionDegrees,WindSpeedMPH,WindSpeedGustMPH,Humidity,HourlyPrecipIn,Conditions,Clouds,dailyrainin,SolarRadiationWatts/m^2,SoftwareType,DateUTC
2013-02-24 00:01:00,37.0,35.0,-100.00,SW,230,1.0,8.0,93,0.00,,,0.02,0.000000,,2013-02-24 08:01:00,
2013-02-24 00:11:00,37.0,35.0,-100.00,NNE,32,1.0,5.0,92,0.00,,,0.02,0.000000,,2013-02-24 08:11:00,
2013-02-24 00:32:00,37.0,35.0,-100.00,NNE,32,1.0,5.0,92,0.00,,,0.02,0.000000,,2013-02-24 08:32:00,
2013-02-24 00:42:00,37.0,35.0,-100.00,NNE,32,1.0,5.0,92,0.00,,,0.02,0.000000,,2013-02-24 08:42:00,
2013-02-24 00:53:00,37.0,35.0,-100.00,NNE,32,1.0,5.0,92,0.00,,,0.02,0.000000,,2013-02-24 08:53:00,
2013-02-24 01:01:00,37.0,35.0,-100.00,NNE,32,1.0,5.0,92,0.00,,,0.02,0.000000,,2013-02-24 09:01:00,
2013-02-24 01:11:00,35.0,33.0,-100.00,NW,305,1.0,5.0,93,0.00,,,0.02,0.000000,,2013-02-24 09:11:00,
2013-02-24 01:32:00,35.0,33.0,-100.00,NW,305,1.0,5.0,93,0.00,,,0.02,0.000000,,2013-02-24 09:32:00,
2013-02-24 01:42:00,35.0,33.0,-100.00,NW,305,1.0,5.0,93,0.00,,,0.02,0.000000,,2013-02-24 09:42:00,
2013-02-24 01:52:00,35.0,33.0,-100.00,NW,305,1.0,5.0,93,0.00,,,0.02,0.000000,,2013-02-24 09:52:00,
2013-02-24 02:01:00,35.0,33.0,-100.00,NW,305,1.0,5.0,93,0.00,,,0.02,0.000000,,2013-02-24 10:01:00,
2013-02-24 02:11:00,36.0,32.0,-100.00,North,355,3.0,6.0,86,0.00,,,0.02,0.000000,,2013-02-24 10:11:00,
2013-02-24 02:32:00,36.0,32.0,-100.00,North,355,3.0,6.0,86,0.00,,,0.02,0.000000,,2013-02-24 10:32:00,
2013-02-24 02:42:00,36.0,32.0,-100.00,North,355,3.0,6.0,86,0.00,,,0.02,0.000000,,2013-02-24 10:42:00,
2013-02-24 02:52:00,36.0,32.0,-100.00,North,355,3.0,6.0,86,0.00,,,0.02,0.000000,,2013-02-24 10:52:00,
2013-02-24 03:01:00,36.0,32.0,-100.00,North,355,3.0,6.0,86,0.00,,,0.02,0.000000,,2013-02-24 11:01:00,
2013-02-24 03:11:00,35.0,32.0,-100.00,WNW,291,2.0,8.0,87,0.00,,,0.02,0.000000,,2013-02-24 11:11:00,
2013-02-24 03:32:00,35.0,32.0,-100.00,WNW,291,2.0,8.0,87,0.00,,,0.02,0.000000,,2013-02-24 11:32:00,
2013-02-24 03:42:00,35.0,32.0,-100.00,WNW,291,2.0,8.0,87,0.00,,,0.02,0.000000,,2013-02-24 11:42:00,
2013-02-24 03:52:00,35.0,32.0,-100.00,WNW,291,2.0,8.0,87,0.00,,,0.02,0.000000,,2013-02-24 11:52:00,
2013-02-24 04:01:00,35.0,32.0,-100.00,WNW,291,2.0,8.0,87,0.00,,,0.02,0.000000,,2013-02-24 12:01:00,
2013-02-24 04:11:00,36.0,29.0,-100.00,NW,314,6.0,8.0,76,0.00,,,0.02,0.000000,,2013-02-24 12:11:00,
2013-02-24 04:33:00,36.0,29.0,-100.00,NW,314,6.0,8.0,76,0.00,,,0.02,0.000000,,2013-02-24 12:33:00,
2013-02-24 04:46:00,36.0,29.0,-100.00,NW,314,6.0,8.0,76,0.00,,,0.02,0.000000,,2013-02-24 12:46:00,
2013-02-24 04:56:00,36.0,29.0,-100.00,NW,314,6.0,8.0,76,0.00,,,0.02,0.000000,,2013-02-24 12:56:00,
2013-02-24 05:05:00,36.0,29.0,-100.00,NW,314,6.0,8.0,76,0.00,,,0.02,0.000000,,2013-02-24 13:05:00,
2013-02-24 05:11:00,35.0,29.0,-100.00,NNW,345,2.0,7.0,79,0.00,,,0.02,0.000000,,2013-02-24 13:11:00,
2013-02-24 05:35:00,35.0,29.0,-100.00,NNW,345,2.0,7.0,79,0.00,,,0.02,0.000000,,2013-02-24 13:35:00,
2013-02-24 05:45:00,35.0,29.0,-100.00,NNW,345,2.0,7.0,79,0.00,,,0.02,0.000000,,2013-02-24 13:45:00,
2013-02-24 05:54:00,35.0,29.0,-100.00,NNW,345,2.0,7.0,79,0.00,,,0.02,0.000000,,2013-02-24 13:54:00,
2013-02-24 06:02:00,35.0,29.0,-100.00,NNW,345,2.0,7.0,79,0.00,,,0.02,0.000000,,2013-02-24 14:02:00,
2013-02-24 06:11:00,34.0,28.0,-100.00,NE,47,1.0,4.0,77,0.00,,,0.02,0.000000,,2013-02-24 14:11:00,
2013-02-24 06:34:00,34.0,28.0,-100.00,NE,47,1.0,4.0,77,0.00,,,0.02,0.000000,,2013-02-24 14:34:00,
2013-02-24 06:45:00,34.0,28.0,-100.00,NE,47,1.0,4.0,77,0.00,,,0.02,0.000000,,2013-02-24 14:45:00,
2013-02-24 06:54:00,34.0,28.0,-100.00,NE,47,1.0,4.0,77,0.00,,,0.02,0.000000,,2013-02-24 14:54:00,
2013-02-24 07:02:00,34.0,28.0,-100.00,NE,47,1.0,4.0,77,0.00,,,0.02,0.000000,,2013-02-24 15:02:00,
2013-02-24 07:11:00,35.0,24.0,-100.00,ENE,57,3.0,7.0,64,0.00,,,0.02,5.000000,,2013-02-24 15:11:00,
2013-02-24 07:32:00,35.0,24.0,-100.00,ENE,57,3.0,7.0,64,0.00,,,0.02,5.000000,,2013-02-24 15:32:00,
2013-02-24 07:42:00,35.0,24.0,-100.00,ENE,57,3.0,7.0,64,0.00,,,0.02,5.000000,,2013-02-24 15:42:00,
2013-02-24 07:52:00,35.0,24.0,-100.00,ENE,57,3.0,7.0,64,0.00,,,0.02,5.000000,,2013-02-24 15:52:00,
2013-02-24 08:01:00,35.0,24.0,-100.00,ENE,57,3.0,7.0,64,0.00,,,0.02,5.000000,,2013-02-24 16:01:00,
2013-02-24 08:11:00,42.0,29.0,-100.00,NW,317,1.0,3.0,59,0.00,,,-99.99,128.000000,,2013-02-24 16:11:00,
2013-02-24 08:32:00,42.0,29.0,-100.00,NW,317,1.0,3.0,59,0.00,,,-99.99,128.000000,,2013-02-24 16:32:00,
2013-02-24 08:42:00,42.0,29.0,-100.00,NW,317,1.0,3.0,59,0.00,,,-99.99,128.000000,,2013-02-24 16:42:00,
2013-02-24 08:52:00,42.0,29.0,-100.00,NW,317,1.0,3.0,59,0.00,,,-99.99,128.000000,,2013-02-24 16:52:00,
2013-02-24 09:01:00,42.0,29.0,-100.00,NW,317,1.0,3.0,59,0.00,,,-99.99,128.000000,,2013-02-24 17:01:00,
2013-02-24 09:11:00,45.0,25.0,-100.00,NW,307,6.0,8.0,45,0.00,,,0.00,338.000000,,2013-02-24 17:11:00,
2013-02-24 09:32:00,45.0,25.0,-100.00,NW,307,6.0,8.0,45,0.00,,,0.00,338.000000,,2013-02-24 17:32:00,
2013-02-24 09:42:00,45.0,25.0,-100.00,NW,307,6.0,8.0,45,0.00,,,0.00,338.000000,,2013-02-24 17:42:00,
2013-02-24 09:52:00,45.0,25.0,-100.00,NW,307,6.0,8.0,45,0.00,,,0.00,338.000000,,2013-02-24 17:52:00,
2013-02-24 10:01:00,45.0,25.0,-100.00,NW,307,6.0,8.0,45,0.00,,,0.00,338.000000,,2013-02-24 18:01:00,
2013-02-24 10:11:00,49.0,23.0,-100.00,NW,307,6.0,11.0,36,0.00,,,0.00,505.000000,,2013-02-24 18:11:00,
2013-02-24 10:32:00,49.0,23.0,-100.00,NW,307,6.0,11.0,36,0.00,,,0.00,505.000000,,2013-02-24 18:32:00,
2013-02-24 10:42:00,49.0,23.0,-100.00,NW,307,6.0,11.0,36,0.00,,,0.00,505.000000,,2013-02-24 18:42:00,
2013-02-24 10:52:00,49.0,23.0,-100.00,NW,307,6.0,11.0,36,0.00,,,0.00,505.000000,,2013-02-24 18:52:00,
2013-02-24 11:01:00,49.0,23.0,-100.00,NW,307,6.0,11.0,36,0.00,,,0.00,505.000000,,2013-02-24 19:01:00,
2013-02-24 11:11:00,52.0,23.0,-100.00,West,266,7.0,12.0,32,0.00,,,0.00,624.000000,,2013-02-24 19:11:00,
2013-02-24 11:32:00,52.0,23.0,-100.00,West,266,7.0,12.0,32,0.00,,,0.00,624.000000,,2013-02-24 19:32:00,
2013-02-24 11:42:00,52.0,23.0,-100.00,West,266,7.0,12.0,32,0.00,,,0.00,624.000000,,2013-02-24 19:42:00,
2013-02-24 11:52:00,52.0,23.0,-100.00,West,266,7.0,12.0,32,0.00,,,0.00,624.000000,,2013-02-24 19:52:00,
2013-02-24 12:02:00,52.0,23.0,-100.00,West,266,7.0,12.0,32,0.00,,,0.00,624.000000,,2013-02-24 20:02:00,
2013-02-24 12:11:00,56.0,21.0,-100.00,WNW,287,5.0,11.0,25,0.00,,,0.00,703.000000,,2013-02-24 20:11:00,
2013-02-24 12:32:00,56.0,21.0,-100.00,WNW,287,5.0,11.0,25,0.00,,,0.00,703.000000,,2013-02-24 20:32:00,
2013-02-24 12:42:00,56.0,21.0,-100.00,WNW,287,5.0,11.0,25,0.00,,,0.00,703.000000,,2013-02-24 20:42:00,
2013-02-24 12:52:00,56.0,21.0,-100.00,WNW,287,5.0,11.0,25,0.00,,,0.00,703.000000,,2013-02-24 20:52:00,
2013-02-24 13:01:00,56.0,21.0,-100.00,WNW,287,5.0,11.0,25,0.00,,,0.00,703.000000,,2013-02-24 21:01:00,
2013-02-24 13:11:00,60.0,15.0,-100.00,West,263,5.0,11.0,17,0.00,,,0.00,712.000000,,2013-02-24 21:11:00,
2013-02-24 13:42:00,60.0,15.0,-100.00,West,263,5.0,11.0,17,0.00,,,0.00,712.000000,,2013-02-24 21:42:00,
2013-02-24 13:52:00,60.0,15.0,-100.00,West,263,5.0,11.0,17,0.00,,,0.00,712.000000,,2013-02-24 21:52:00,
2013-02-24 14:01:00,60.0,15.0,-100.00,West,263,5.0,11.0,17,0.00,,,0.00,712.000000,,2013-02-24 22:01:00,
2013-02-24 14:11:00,60.0,15.0,-100.00,NW,311,12.0,18.0,17,0.00,,,0.00,664.000000,,2013-02-24 22:11:00,
2013-02-24 14:42:00,60.0,15.0,-100.00,NW,311,12.0,18.0,17,0.00,,,0.00,664.000000,,2013-02-24 22:42:00,
2013-02-24 14:52:00,60.0,15.0,-100.00,NW,311,12.0,18.0,17,0.00,,,0.00,664.000000,,2013-02-24 22:52:00,
2013-02-24 15:02:00,60.0,15.0,-100.00,NW,311,12.0,18.0,17,0.00,,,0.00,664.000000,,2013-02-24 23:02:00,
2013-02-24 15:11:00,61.0,21.0,-100.00,SW,236,12.0,19.0,21,0.00,,,0.00,550.000000,,2013-02-24 23:11:00,
2013-02-24 15:32:00,61.0,21.0,-100.00,SW,236,12.0,19.0,21,0.00,,,0.00,550.000000,,2013-02-24 23:32:00,
2013-02-24 15:42:00,61.0,21.0,-100.00,SW,236,12.0,19.0,21,0.00,,,0.00,550.000000,,2013-02-24 23:42:00,
2013-02-24 15:52:00,61.0,21.0,-100.00,SW,236,12.0,19.0,21,0.00,,,0.00,550.000000,,2013-02-24 23:52:00,
2013-02-24 16:01:00,61.0,21.0,-100.00,SW,236,12.0,19.0,21,0.00,,,0.00,550.000000,,2013-02-25 00:01:00,
2013-02-24 16:11:00,60.0,21.0,-100.00,WSW,256,6.0,16.0,22,0.00,,,0.00,403.000000,,2013-02-25 00:11:00,
2013-02-24 16:42:00,60.0,21.0,-100.00,WSW,256,6.0,16.0,22,0.00,,,0.00,403.000000,,2013-02-25 00:42:00,
2013-02-24 16:52:00,60.0,21.0,-100.00,WSW,256,6.0,16.0,22,0.00,,,0.00,403.000000,,2013-02-25 00:52:00,
2013-02-24 17:01:00,60.0,21.0,-100.00,WSW,256,6.0,16.0,22,0.00,,,0.00,403.000000,,2013-02-25 01:01:00,
2013-02-24 17:11:00,56.0,23.0,-100.00,WNW,299,8.0,11.0,27,0.00,,,0.00,220.000000,,2013-02-25 01:11:00,
2013-02-24 17:42:00,56.0,23.0,-100.00,WNW,299,8.0,11.0,27,0.00,,,0.00,220.000000,,2013-02-25 01:42:00,
2013-02-24 17:52:00,56.0,23.0,-100.00,WNW,299,8.0,11.0,27,0.00,,,0.00,220.000000,,2013-02-25 01:52:00,
2013-02-24 18:01:00,56.0,23.0,-100.00,WNW,299,8.0,11.0,27,0.00,,,0.00,220.000000,,2013-02-25 02:01:00,
2013-02-24 18:11:00,47.0,31.0,-100.00,NNW,332,9.0,16.0,54,0.00,,,0.00,41.000000,,2013-02-25 02:11:00,
2013-02-24 18:42:00,47.0,31.0,-100.00,NNW,332,9.0,16.0,54,0.00,,,0.00,41.000000,,2013-02-25 02:42:00,
2013-02-24 18:52:00,47.0,31.0,-100.00,NNW,332,9.0,16.0,54,0.00,,,0.00,41.000000,,2013-02-25 02:52:00,
2013-02-24 19:01:00,47.0,31.0,-100.00,NNW,332,9.0,16.0,54,0.00,,,0.00,41.000000,,2013-02-25 03:01:00,
2013-02-24 19:11:00,44.0,31.0,-100.00,NE,43,4.0,9.0,59,0.00,,,0.00,0.000000,,2013-02-25 03:11:00,
2013-02-24 19:32:00,44.0,31.0,-100.00,NE,43,4.0,9.0,59,0.00,,,0.00,0.000000,,2013-02-25 03:32:00,
2013-02-24 19:42:00,44.0,31.0,-100.00,NE,43,4.0,9.0,59,0.00,,,0.00,0.000000,,2013-02-25 03:42:00,
2013-02-24 19:52:00,44.0,31.0,-100.00,NE,43,4.0,9.0,59,0.00,,,0.00,0.000000,,2013-02-25 03:52:00,
2013-02-24 20:01:00,44.0,31.0,-100.00,NE,43,4.0,9.0,59,0.00,,,0.00,0.000000,,2013-02-25 04:01:00,
2013-02-24 20:11:00,41.0,29.0,-100.00,ESE,117,4.0,9.0,62,0.00,,,0.00,0.000000,,2013-02-25 04:11:00,
2013-02-24 20:32:00,41.0,29.0,-100.00,ESE,117,4.0,9.0,62,0.00,,,0.00,0.000000,,2013-02-25 04:32:00,
2013-02-24 20:42:00,41.0,29.0,-100.00,ESE,117,4.0,9.0,62,0.00,,,0.00,0.000000,,2013-02-25 04:42:00,
2013-02-24 20:52:00,41.0,29.0,-100.00,ESE,117,4.0,9.0,62,0.00,,,0.00,0.000000,,2013-02-25 04:52:00,
2013-02-24 21:01:00,41.0,29.0,-100.00,ESE,117,4.0,9.0,62,0.00,,,0.00,0.000000,,2013-02-25 05:01:00,
2013-02-24 21:11:00,40.0,28.0,-100.00,ESE,115,6.0,7.0,62,0.00,,,-99.99,0.000000,,2013-02-25 05:11:00,
2013-02-24 21:32:00,40.0,28.0,-100.00,ESE,115,6.0,7.0,62,0.00,,,-99.99,0.000000,,2013-02-25 05:32:00,
2013-02-24 21:42:00,40.0,28.0,-100.00,ESE,115,6.0,7.0,62,0.00,,,-99.99,0.000000,,2013-02-25 05:42:00,
2013-02-24 21:52:00,40.0,28.0,-100.00,ESE,115,6.0,7.0,62,0.00,,,-99.99,0.000000,,2013-02-25 05:52:00,
2013-02-24 22:02:00,40.0,28.0,-100.00,ESE,115,6.0,7.0,62,0.00,,,-99.99,0.000000,,2013-02-25 06:02:00,
2013-02-24 22:11:00,41.0,26.0,-100.00,East,82,7.0,10.0,54,0.00,,,0.00,0.000000,,2013-02-25 06:11:00,
2013-02-24 22:32:00,41.0,26.0,-100.00,East,82,7.0,10.0,54,0.00,,,0.00,0.000000,,2013-02-25 06:32:00,
2013-02-24 22:42:00,41.0,26.0,-100.00,East,82,7.0,10.0,54,0.00,,,0.00,0.000000,,2013-02-25 06:42:00,
2013-02-24 22:52:00,41.0,26.0,-100.00,East,82,7.0,10.0,54,0.00,,,0.00,0.000000,,2013-02-25 06:52:00,
2013-02-24 23:01:00,41.0,26.0,-100.00,East,82,7.0,10.0,54,0.00,,,0.00,0.000000,,2013-02-25 07:01:00,
2013-02-24 23:11:00,40.0,24.0,-100.00,ESE,102,5.0,10.0,52,0.00,,,0.00,0.000000,,2013-02-25 07:11:00,
2013-02-24 23:42:00,40.0,24.0,-100.00,ESE,102,5.0,10.0,52,0.00,,,0.00,0.000000,,2013-02-25 07:42:00,
2013-02-24 23:52:00,40.0,24.0,-100.00,ESE,102,5.0,10.0,52,0.00,,,0.00,0.000000,,2013-02-25 07:52:00,